CES6837 ZSSS-ZSWZ
Flight info
| Callsign | CES6837 |
|---|---|
| Flight time | 0h 40m |
| Altitude | 17700 |
| Route | AND G204 SHZ B221 REMIM |
| Aircraft | A320/M-SDE3FGHIRWY/LB1 |
Departure
| Time | 2026-05-03 23:44 |
|---|---|
| Airport | Shanghai Hongqiao International Airport (ZSSS) |
Arrival
| Time | 2026-05-04 00:24 |
|---|---|
| Airport | Wenzhou Longwan International Airport (ZSWZ) |
| Time | Latitude | Longitude | Altitude | Speed | Heading |
|---|---|---|---|---|---|
| 2026-05-03 23:27 | 31.19335 | 121.32759 | 19 ft | 0 kts | 357° |
| 2026-05-03 23:36 | 31.19320 | 121.32760 | 22 ft | 2 kts | 357° |
| 2026-05-03 23:36 | 31.19315 | 121.32760 | 21 ft | 0 kts | 357° |
| 2026-05-03 23:36 | 31.19316 | 121.32760 | 22 ft | 0 kts | 357° |
| 2026-05-03 23:36 | 31.19306 | 121.32760 | 20 ft | 2 kts | 357° |
| 2026-05-03 23:37 | 31.19289 | 121.32761 | 19 ft | 0 kts | 357° |
| 2026-05-03 23:37 | 31.19282 | 121.32762 | 19 ft | 2 kts | 357° |
| 2026-05-03 23:38 | 31.19264 | 121.32763 | 21 ft | 2 kts | 357° |
| 2026-05-03 23:38 | 31.19247 | 121.32763 | 19 ft | 3 kts | 21° |
| 2026-05-03 23:38 | 31.19232 | 121.32752 | 19 ft | 3 kts | 58° |
| 2026-05-03 23:38 | 31.19225 | 121.32732 | 20 ft | 3 kts | 95° |
| 2026-05-03 23:39 | 31.19228 | 121.32713 | 19 ft | 3 kts | 85° |
| 2026-05-03 23:39 | 31.19227 | 121.32709 | 19 ft | 0 kts | 84° |
| 2026-05-03 23:39 | 31.19233 | 121.32777 | 19 ft | 23 kts | 84° |
| 2026-05-03 23:40 | 31.19248 | 121.32992 | 19 ft | 28 kts | 81° |
| 2026-05-03 23:40 | 31.19294 | 121.33085 | 19 ft | 14 kts | 357° |
| 2026-05-03 23:40 | 31.19449 | 121.33075 | 19 ft | 26 kts | 357° |
| 2026-05-03 23:40 | 31.19639 | 121.33063 | 19 ft | 30 kts | 357° |
| 2026-05-03 23:41 | 31.19876 | 121.33046 | 19 ft | 30 kts | 357° |
| 2026-05-03 23:41 | 31.20089 | 121.33036 | 20 ft | 31 kts | 358° |
| 2026-05-03 23:41 | 31.20310 | 121.33024 | 20 ft | 32 kts | 357° |
| 2026-05-03 23:41 | 31.20539 | 121.33012 | 19 ft | 34 kts | 357° |
| 2026-05-03 23:42 | 31.20775 | 121.32994 | 19 ft | 34 kts | 355° |
| 2026-05-03 23:42 | 31.21002 | 121.32984 | 19 ft | 30 kts | 359° |
| 2026-05-03 23:42 | 31.21212 | 121.32978 | 19 ft | 31 kts | 358° |
| 2026-05-03 23:42 | 31.21286 | 121.33014 | 19 ft | 8 kts | 86° |
| 2026-05-03 23:43 | 31.21291 | 121.33116 | 19 ft | 17 kts | 88° |
| 2026-05-03 23:43 | 31.21233 | 121.33170 | 18 ft | 12 kts | 176° |
| 2026-05-03 23:43 | 31.21030 | 121.33180 | 17 ft | 64 kts | 178° |
| 2026-05-03 23:43 | 31.20354 | 121.33216 | 21 ft | 130 kts | 177° |
| 2026-05-03 23:44 | 31.19276 | 121.33276 | 249 ft | 162 kts | 178° |
| 2026-05-03 23:44 | 31.18177 | 121.33338 | 1031 ft | 160 kts | 180° |
| 2026-05-03 23:44 | 31.17021 | 121.33398 | 1650 ft | 175 kts | 181° |
| 2026-05-03 23:44 | 31.15723 | 121.33459 | 2085 ft | 200 kts | 181° |
| 2026-05-03 23:45 | 31.14252 | 121.33530 | 2556 ft | 224 kts | 180° |
| 2026-05-03 23:45 | 31.12608 | 121.33612 | 3089 ft | 249 kts | 179° |
| 2026-05-03 23:45 | 31.10799 | 121.33705 | 3736 ft | 268 kts | 179° |
| 2026-05-03 23:45 | 31.08908 | 121.33810 | 4646 ft | 276 kts | 179° |
| 2026-05-03 23:46 | 31.06964 | 121.33921 | 5571 ft | 284 kts | 179° |
| 2026-05-03 23:46 | 31.04963 | 121.34031 | 6472 ft | 291 kts | 179° |
| 2026-05-03 23:46 | 31.02918 | 121.34169 | 7365 ft | 298 kts | 174° |
| 2026-05-03 23:46 | 31.00856 | 121.34545 | 8320 ft | 301 kts | 172° |
| 2026-05-03 23:47 | 30.98776 | 121.34936 | 9309 ft | 305 kts | 172° |
| 2026-05-03 23:47 | 30.96671 | 121.35330 | 10288 ft | 308 kts | 172° |
| 2026-05-03 23:47 | 30.94545 | 121.35728 | 11183 ft | 311 kts | 173° |
| 2026-05-03 23:47 | 30.92403 | 121.36126 | 12066 ft | 314 kts | 174° |
| 2026-05-03 23:48 | 30.90195 | 121.36463 | 12598 ft | 331 kts | 177° |
| 2026-05-03 23:48 | 30.87822 | 121.36725 | 12864 ft | 354 kts | 178° |
| 2026-05-03 23:48 | 30.85299 | 121.36958 | 13355 ft | 368 kts | 179° |
| 2026-05-03 23:48 | 30.82728 | 121.37190 | 14074 ft | 374 kts | 179° |
| 2026-05-03 23:49 | 30.80117 | 121.37434 | 14774 ft | 378 kts | 179° |
| 2026-05-03 23:49 | 30.77478 | 121.37692 | 15476 ft | 382 kts | 179° |
| 2026-05-03 23:49 | 30.74820 | 121.37964 | 16158 ft | 385 kts | 178° |
| 2026-05-03 23:49 | 30.72134 | 121.38244 | 16856 ft | 389 kts | 178° |
| 2026-05-03 23:50 | 30.69459 | 121.38525 | 17521 ft | 393 kts | 178° |
| 2026-05-03 23:50 | 30.67613 | 121.38719 | 17976 ft | 395 kts | 178° |
| 2026-05-03 23:50 | 30.63957 | 121.39107 | 18801 ft | 400 kts | 179° |
| 2026-05-03 23:50 | 30.61181 | 121.39400 | 19428 ft | 402 kts | 179° |
| 2026-05-03 23:51 | 30.58400 | 121.39690 | 19707 ft | 401 kts | 180° |
| 2026-05-03 23:51 | 30.55612 | 121.39977 | 19798 ft | 406 kts | 180° |
| 2026-05-03 23:51 | 30.52768 | 121.40265 | 19818 ft | 413 kts | 180° |
| 2026-05-03 23:51 | 30.49901 | 121.40558 | 19819 ft | 415 kts | 180° |
| 2026-05-03 23:52 | 30.47023 | 121.40857 | 19819 ft | 415 kts | 180° |
| 2026-05-03 23:52 | 30.44140 | 121.41143 | 19819 ft | 414 kts | 182° |
| 2026-05-03 23:52 | 30.41299 | 121.40953 | 19818 ft | 406 kts | 195° |
| 2026-05-03 23:52 | 30.38610 | 121.40075 | 19821 ft | 398 kts | 207° |
| 2026-05-03 23:53 | 30.36189 | 121.38572 | 19823 ft | 391 kts | 219° |
| 2026-05-03 23:53 | 30.34162 | 121.36589 | 19824 ft | 385 kts | 230° |
| 2026-05-03 23:53 | 30.32508 | 121.34186 | 19826 ft | 380 kts | 240° |
| 2026-05-03 23:53 | 30.31057 | 121.31632 | 19821 ft | 380 kts | 240° |
| 2026-05-03 23:54 | 30.29598 | 121.29079 | 19824 ft | 380 kts | 240° |
| 2026-05-03 23:54 | 30.28143 | 121.26530 | 19826 ft | 380 kts | 240° |
| 2026-05-03 23:54 | 30.26614 | 121.24041 | 19823 ft | 383 kts | 234° |
| 2026-05-03 23:54 | 30.24697 | 121.21871 | 19826 ft | 388 kts | 223° |
| 2026-05-03 23:55 | 30.22421 | 121.20151 | 19828 ft | 395 kts | 213° |
| 2026-05-03 23:55 | 30.19997 | 121.18651 | 19829 ft | 395 kts | 213° |
| 2026-05-03 23:55 | 30.17575 | 121.17148 | 19831 ft | 395 kts | 213° |
| 2026-05-03 23:55 | 30.15162 | 121.15650 | 19839 ft | 394 kts | 213° |
| 2026-05-03 23:56 | 30.12744 | 121.14149 | 19837 ft | 394 kts | 213° |
| 2026-05-03 23:56 | 30.10332 | 121.12652 | 19842 ft | 394 kts | 213° |
| 2026-05-03 23:56 | 30.07912 | 121.11155 | 19844 ft | 394 kts | 213° |
| 2026-05-03 23:56 | 30.05499 | 121.09663 | 19848 ft | 393 kts | 213° |
| 2026-05-03 23:57 | 30.03084 | 121.08169 | 19850 ft | 393 kts | 213° |
| 2026-05-03 23:57 | 30.00674 | 121.06678 | 19849 ft | 393 kts | 214° |
| 2026-05-03 23:57 | 29.98282 | 121.05198 | 19847 ft | 393 kts | 213° |
| 2026-05-03 23:57 | 29.95881 | 121.03710 | 19854 ft | 392 kts | 213° |
| 2026-05-03 23:58 | 29.93476 | 121.02222 | 19854 ft | 392 kts | 213° |
| 2026-05-03 23:58 | 29.91079 | 121.00745 | 19853 ft | 391 kts | 213° |
| 2026-05-03 23:58 | 29.88677 | 120.99271 | 19860 ft | 391 kts | 213° |
| 2026-05-03 23:58 | 29.86281 | 120.97803 | 19859 ft | 390 kts | 213° |
| 2026-05-03 23:59 | 29.83903 | 120.96343 | 19861 ft | 389 kts | 213° |
| 2026-05-03 23:59 | 29.81554 | 120.94896 | 19863 ft | 387 kts | 213° |
| 2026-05-03 23:59 | 29.79181 | 120.93433 | 19868 ft | 386 kts | 212° |
| 2026-05-03 23:59 | 29.76817 | 120.91980 | 19865 ft | 385 kts | 212° |
| 2026-05-04 00:00 | 29.74455 | 120.90530 | 19863 ft | 385 kts | 213° |
| 2026-05-04 00:00 | 29.72104 | 120.89086 | 19863 ft | 384 kts | 213° |
| 2026-05-04 00:00 | 29.69749 | 120.87639 | 19867 ft | 383 kts | 213° |
| 2026-05-04 00:00 | 29.67397 | 120.86192 | 19869 ft | 383 kts | 213° |
| 2026-05-04 00:01 | 29.65051 | 120.84751 | 19875 ft | 383 kts | 213° |
| 2026-05-04 00:01 | 29.62702 | 120.83311 | 19863 ft | 382 kts | 212° |
| 2026-05-04 00:01 | 29.60250 | 120.82084 | 19867 ft | 388 kts | 203° |
| 2026-05-04 00:01 | 29.57595 | 120.81408 | 19866 ft | 395 kts | 192° |
| 2026-05-04 00:02 | 29.54848 | 120.81126 | 19872 ft | 396 kts | 191° |
| 2026-05-04 00:02 | 29.52103 | 120.80851 | 19867 ft | 396 kts | 191° |
| 2026-05-04 00:02 | 29.49362 | 120.80573 | 19867 ft | 395 kts | 191° |
| 2026-05-04 00:02 | 29.46625 | 120.80297 | 19865 ft | 395 kts | 191° |
| 2026-05-04 00:03 | 29.43965 | 120.80020 | 19868 ft | 394 kts | 191° |
| 2026-05-04 00:03 | 29.41229 | 120.79730 | 19871 ft | 394 kts | 191° |
| 2026-05-04 00:03 | 29.38549 | 120.79445 | 19880 ft | 393 kts | 191° |
| 2026-05-04 00:03 | 29.35846 | 120.79160 | 19876 ft | 393 kts | 191° |
| 2026-05-04 00:04 | 29.33125 | 120.78875 | 19879 ft | 392 kts | 191° |
| 2026-05-04 00:04 | 29.30404 | 120.78590 | 19879 ft | 392 kts | 191° |
| 2026-05-04 00:04 | 29.27724 | 120.78311 | 19881 ft | 391 kts | 191° |
| 2026-05-04 00:04 | 29.25006 | 120.78029 | 19878 ft | 390 kts | 191° |
| 2026-05-04 00:05 | 29.22303 | 120.77751 | 19881 ft | 390 kts | 191° |
| 2026-05-04 00:05 | 29.19595 | 120.77474 | 19875 ft | 389 kts | 191° |
| 2026-05-04 00:05 | 29.16903 | 120.77198 | 19878 ft | 389 kts | 191° |
| 2026-05-04 00:05 | 29.14225 | 120.76921 | 19874 ft | 389 kts | 191° |
| 2026-05-04 00:06 | 29.11567 | 120.76646 | 19874 ft | 388 kts | 192° |
| 2026-05-04 00:06 | 29.08884 | 120.76370 | 19874 ft | 388 kts | 192° |
| 2026-05-04 00:06 | 29.06215 | 120.76097 | 19670 ft | 379 kts | 191° |
| 2026-05-04 00:06 | 29.03611 | 120.75832 | 19248 ft | 373 kts | 192° |
| 2026-05-04 00:07 | 29.01039 | 120.75569 | 18845 ft | 367 kts | 192° |
| 2026-05-04 00:07 | 28.98509 | 120.75310 | 18438 ft | 364 kts | 192° |
| 2026-05-04 00:07 | 28.96028 | 120.75055 | 17964 ft | 362 kts | 192° |
| 2026-05-04 00:07 | 28.93555 | 120.74799 | 17504 ft | 362 kts | 192° |
| 2026-05-04 00:08 | 28.91026 | 120.74532 | 17036 ft | 362 kts | 191° |
| 2026-05-04 00:08 | 28.88534 | 120.74270 | 16588 ft | 362 kts | 191° |
| 2026-05-04 00:08 | 28.86024 | 120.74009 | 16138 ft | 362 kts | 191° |
| 2026-05-04 00:08 | 28.83502 | 120.73748 | 15701 ft | 362 kts | 191° |
| 2026-05-04 00:09 | 28.80998 | 120.73490 | 15270 ft | 362 kts | 190° |
| 2026-05-04 00:09 | 28.78498 | 120.73231 | 14837 ft | 361 kts | 190° |
| 2026-05-04 00:09 | 28.76003 | 120.72971 | 14428 ft | 360 kts | 189° |
| 2026-05-04 00:09 | 28.73539 | 120.72712 | 14011 ft | 359 kts | 189° |
| 2026-05-04 00:10 | 28.71052 | 120.72449 | 13542 ft | 357 kts | 189° |
| 2026-05-04 00:10 | 28.69413 | 120.72278 | 13232 ft | 356 kts | 189° |
| 2026-05-04 00:10 | 28.66949 | 120.72022 | 12744 ft | 354 kts | 188° |
| 2026-05-04 00:10 | 28.64491 | 120.71763 | 12297 ft | 353 kts | 188° |
| 2026-05-04 00:11 | 28.61267 | 120.71425 | 11958 ft | 351 kts | 188° |
| 2026-05-04 00:11 | 28.59618 | 120.71253 | 11977 ft | 352 kts | 188° |
| 2026-05-04 00:11 | 28.57184 | 120.71001 | 11985 ft | 352 kts | 188° |
| 2026-05-04 00:11 | 28.54773 | 120.70750 | 11957 ft | 352 kts | 188° |
| 2026-05-04 00:12 | 28.52338 | 120.70496 | 11696 ft | 351 kts | 188° |
| 2026-05-04 00:12 | 28.49879 | 120.70240 | 11450 ft | 350 kts | 187° |
| 2026-05-04 00:12 | 28.47483 | 120.69991 | 11210 ft | 349 kts | 187° |
| 2026-05-04 00:12 | 28.45097 | 120.69743 | 10964 ft | 340 kts | 187° |
| 2026-05-04 00:13 | 28.42767 | 120.69506 | 10724 ft | 330 kts | 187° |
| 2026-05-04 00:13 | 28.40482 | 120.69281 | 10480 ft | 321 kts | 186° |
| 2026-05-04 00:13 | 28.38310 | 120.69069 | 10246 ft | 314 kts | 186° |
| 2026-05-04 00:13 | 28.36162 | 120.68860 | 9997 ft | 304 kts | 186° |
| 2026-05-04 00:14 | 28.34134 | 120.68663 | 9852 ft | 284 kts | 186° |
| 2026-05-04 00:14 | 28.32175 | 120.68658 | 9722 ft | 278 kts | 171° |
| 2026-05-04 00:14 | 28.30356 | 120.69340 | 9589 ft | 277 kts | 151° |
| 2026-05-04 00:14 | 28.28846 | 120.70671 | 9453 ft | 275 kts | 130° |
| 2026-05-04 00:15 | 28.27801 | 120.72475 | 9321 ft | 274 kts | 116° |
| 2026-05-04 00:15 | 28.26905 | 120.74392 | 9193 ft | 274 kts | 116° |
| 2026-05-04 00:15 | 28.26009 | 120.76299 | 9061 ft | 273 kts | 116° |
| 2026-05-04 00:15 | 28.25111 | 120.78198 | 8931 ft | 273 kts | 117° |
| 2026-05-04 00:16 | 28.24211 | 120.80092 | 8776 ft | 274 kts | 117° |
| 2026-05-04 00:16 | 28.23306 | 120.81998 | 8358 ft | 275 kts | 117° |
| 2026-05-04 00:16 | 28.22394 | 120.83915 | 7988 ft | 275 kts | 117° |
| 2026-05-04 00:16 | 28.21491 | 120.85807 | 7728 ft | 270 kts | 117° |
| 2026-05-04 00:17 | 28.20622 | 120.87633 | 7528 ft | 262 kts | 117° |
| 2026-05-04 00:17 | 28.19766 | 120.89435 | 7407 ft | 252 kts | 117° |
| 2026-05-04 00:17 | 28.18961 | 120.91123 | 7210 ft | 241 kts | 118° |
| 2026-05-04 00:17 | 28.18174 | 120.92773 | 6996 ft | 228 kts | 117° |
| 2026-05-04 00:18 | 28.17447 | 120.94299 | 6791 ft | 219 kts | 118° |
| 2026-05-04 00:18 | 28.16720 | 120.95795 | 6432 ft | 215 kts | 123° |
| 2026-05-04 00:18 | 28.15719 | 120.97036 | 6056 ft | 212 kts | 144° |
| 2026-05-04 00:18 | 28.14441 | 120.97802 | 5701 ft | 208 kts | 164° |
| 2026-05-04 00:19 | 28.13017 | 120.98043 | 5332 ft | 207 kts | 183° |
| 2026-05-04 00:19 | 28.11612 | 120.97751 | 4888 ft | 205 kts | 201° |
| 2026-05-04 00:19 | 28.10210 | 120.96972 | 3825 ft | 238 kts | 209° |
| 2026-05-04 00:19 | 28.08792 | 120.96090 | 3650 ft | 225 kts | 208° |
| 2026-05-04 00:20 | 28.07436 | 120.95261 | 3446 ft | 220 kts | 208° |
| 2026-05-04 00:20 | 28.06101 | 120.94451 | 3137 ft | 215 kts | 208° |
| 2026-05-04 00:20 | 28.04800 | 120.93662 | 2849 ft | 211 kts | 208° |
| 2026-05-04 00:20 | 28.03522 | 120.92888 | 2582 ft | 201 kts | 208° |
| 2026-05-04 00:21 | 28.02341 | 120.92172 | 2323 ft | 188 kts | 208° |
| 2026-05-04 00:21 | 28.01232 | 120.91501 | 2067 ft | 174 kts | 208° |
| 2026-05-04 00:21 | 28.00200 | 120.90876 | 1836 ft | 164 kts | 208° |
| 2026-05-04 00:21 | 27.99215 | 120.90279 | 1626 ft | 158 kts | 208° |
| 2026-05-04 00:22 | 27.98263 | 120.89703 | 1412 ft | 152 kts | 208° |
| 2026-05-04 00:22 | 27.97348 | 120.89149 | 1210 ft | 147 kts | 209° |
| 2026-05-04 00:22 | 27.96455 | 120.88609 | 1023 ft | 146 kts | 208° |
| 2026-05-04 00:22 | 27.95562 | 120.88069 | 828 ft | 144 kts | 210° |
| 2026-05-04 00:23 | 27.94683 | 120.87536 | 599 ft | 143 kts | 208° |
| 2026-05-04 00:23 | 27.93807 | 120.87004 | 434 ft | 143 kts | 208° |
| 2026-05-04 00:23 | 27.92922 | 120.86474 | 251 ft | 143 kts | 208° |
| 2026-05-04 00:23 | 27.92054 | 120.85945 | 58 ft | 143 kts | 208° |
| 2026-05-04 00:24 | 27.91228 | 120.85440 | 17 ft | 114 kts | 209° |
| 2026-05-04 00:24 | 27.90772 | 120.85166 | 17 ft | 37 kts | 208° |
| 2026-05-04 00:24 | 27.90630 | 120.85004 | 17 ft | 29 kts | 237° |
| 2026-05-04 00:24 | 27.90586 | 120.84868 | 19 ft | 12 kts | 311° |
| 2026-05-04 00:25 | 27.90616 | 120.84821 | 19 ft | 6 kts | 284° |
| 2026-05-04 00:25 | 27.90614 | 120.84737 | 17 ft | 18 kts | 271° |
| 2026-05-04 00:25 | 27.90636 | 120.84674 | 17 ft | 19 kts | 296° |
| 2026-05-04 00:26 | 27.90685 | 120.84571 | 17 ft | 6 kts | 299° |
| 2026-05-04 00:26 | 27.90703 | 120.84566 | 19 ft | 2 kts | 8° |
| 2026-05-04 00:26 | 27.90736 | 120.84577 | 17 ft | 13 kts | 15° |
| 2026-05-04 00:27 | 27.90816 | 120.84610 | 17 ft | 4 kts | 74° |
| 2026-05-04 00:27 | 27.90783 | 120.84624 | 17 ft | 10 kts | 212° |
| 2026-05-04 00:27 | 27.90791 | 120.84557 | 17 ft | 8 kts | 297° |
| 2026-05-04 00:27 | 48.36281 | 11.76798 | -5 ft | 0 kts | 83° |